This is the latest recevied weather packets stored in our database for station/object K4QXN. If no packets are shown the sender has not sent any weather packets the latest 10 day(s).
| Time | Temp. | Humidity | Pressure | Rain* | Wind** | Luminosity | Snow |
|---|---|---|---|---|---|---|---|
| 1777671703 | 20° C | 54% | 1010.1 hPa | 0 mm | - | - | - |
| 1777671401 | 20.56° C | 54% | 1010.1 hPa | 0 mm | - | - | - |
| 1777670797 | 19.44° C | 57% | 1010.4 hPa | 0 mm | - | - | - |
| 1777670496 | 17.78° C | 58% | 1010.4 hPa | 0 mm | - | - | - |
| 1777670192 | 18.33° C | 57% | 1010.1 hPa | 0 mm | - | - | - |
| 1777669891 | 18.89° C | 56% | 1010.1 hPa | 0 mm | - | - | - |
| 1777668985 | 19.44° C | 55% | 1010.1 hPa | 0 mm | - | - | - |
| 1777668683 | 19.44° C | 56% | 1010.4 hPa | 0 mm | - | - | - |
| 1777668381 | 18.33° C | 57% | 1010.4 hPa | 0 mm | - | - | - |
| 1777668079 | 19.44° C | 56% | 1010.4 hPa | 0 mm | - | - | - |
| 1777667474 | 20.56° C | 52% | 1010.4 hPa | 0 mm | - | - | - |
| 1777666871 | 19.44° C | 54% | 1010.8 hPa | 0 mm | - | - | - |
| 1777666564 | 20° C | 52% | 1010.8 hPa | 0 mm | - | - | - |
| 1777666260 | 20° C | 52% | 1010.8 hPa | 0 mm | - | - | - |
| 1777665958 | 20.56° C | 52% | 1010.8 hPa | 0 mm | - | - | - |
| 1777665657 | 20° C | 53% | 1010.8 hPa | 0 mm | - | - | - |
| 1777665052 | 18.89° C | 53% | 1011.1 hPa | 0 mm | - | - | - |
| 1777664743 | 18.89° C | 51% | 1011.1 hPa | 0 mm | - | - | - |
| 1777664442 | 19.44° C | 51% | 1011.5 hPa | 0 mm | - | - | - |
| 1777663838 | 18.89° C | 52% | 1011.8 hPa | 0 mm | - | - | - |
| 1777663234 | 18.89° C | 51% | 1011.8 hPa | 0 mm | - | - | - |
| 1777662931 | 20° C | 51% | 1011.8 hPa | 0 mm | - | - | - |
| 1777662629 | 18.89° C | 51% | 1011.8 hPa | 0 mm | - | - | - |
| 1777662327 | 18.33° C | 52% | 1011.8 hPa | 0 mm | - | - | - |
| 1777662025 | 18.89° C | 51% | 1011.8 hPa | 0 mm | - | - | - |
* Rain latest hour (hover to see other rain measurements)
** Current wind speed in m/s (hover to see current wind gust speed)